sensor_id;sensor_type;location;lat;lon;timestamp;P1;durP1;ratioP1;P2;durP2;ratioP2
8861;SDS011;4799;50.996;4.754;2024-01-25T00:01:34;44.70;;;10.97;;
8861;SDS011;4799;50.996;4.754;2024-01-25T00:04:00;40.40;;;9.93;;
8861;SDS011;4799;50.996;4.754;2024-01-25T00:06:25;30.90;;;8.90;;
8861;SDS011;4799;50.996;4.754;2024-01-25T00:08:51;39.60;;;10.27;;
8861;SDS011;4799;50.996;4.754;2024-01-25T00:11:17;43.40;;;9.87;;
8861;SDS011;4799;50.996;4.754;2024-01-25T00:13:43;38.13;;;10.33;;
8861;SDS011;4799;50.996;4.754;2024-01-25T00:16:08;42.37;;;9.33;;
8861;SDS011;4799;50.996;4.754;2024-01-25T00:18:34;41.20;;;10.20;;
8861;SDS011;4799;50.996;4.754;2024-01-25T00:21:00;39.30;;;9.80;;
8861;SDS011;4799;50.996;4.754;2024-01-25T00:23:26;38.70;;;10.37;;
8861;SDS011;4799;50.996;4.754;2024-01-25T00:25:51;47.00;;;10.73;;
8861;SDS011;4799;50.996;4.754;2024-01-25T00:28:17;41.00;;;10.27;;
8861;SDS011;4799;50.996;4.754;2024-01-25T00:30:43;38.87;;;9.70;;
8861;SDS011;4799;50.996;4.754;2024-01-25T00:33:08;45.90;;;10.73;;
8861;SDS011;4799;50.996;4.754;2024-01-25T00:35:34;44.17;;;11.30;;
8861;SDS011;4799;50.996;4.754;2024-01-25T00:38:00;45.00;;;10.30;;
8861;SDS011;4799;50.996;4.754;2024-01-25T00:40:26;41.50;;;11.00;;
8861;SDS011;4799;50.996;4.754;2024-01-25T00:42:52;45.00;;;10.40;;
8861;SDS011;4799;50.996;4.754;2024-01-25T00:45:19;45.43;;;11.00;;
8861;SDS011;4799;50.996;4.754;2024-01-25T00:47:45;41.00;;;9.67;;
8861;SDS011;4799;50.996;4.754;2024-01-25T00:50:11;37.37;;;9.83;;
8861;SDS011;4799;50.996;4.754;2024-01-25T00:52:38;39.97;;;9.83;;
8861;SDS011;4799;50.996;4.754;2024-01-25T00:55:04;40.07;;;10.27;;
8861;SDS011;4799;50.996;4.754;2024-01-25T00:57:30;42.13;;;10.10;;
8861;SDS011;4799;50.996;4.754;2024-01-25T00:59:57;38.67;;;9.73;;
8861;SDS011;4799;50.996;4.754;2024-01-25T01:02:24;45.97;;;10.80;;
8861;SDS011;4799;50.996;4.754;2024-01-25T01:04:55;42.60;;;11.17;;
8861;SDS011;4799;50.996;4.754;2024-01-25T01:07:24;48.13;;;10.57;;
8861;SDS011;4799;50.996;4.754;2024-01-25T01:09:50;46.53;;;11.23;;
8861;SDS011;4799;50.996;4.754;2024-01-25T01:12:16;46.27;;;10.43;;
8861;SDS011;4799;50.996;4.754;2024-01-25T01:14:42;44.93;;;10.60;;
8861;SDS011;4799;50.996;4.754;2024-01-25T01:17:08;45.00;;;10.83;;
8861;SDS011;4799;50.996;4.754;2024-01-25T01:19:34;41.20;;;10.07;;
8861;SDS011;4799;50.996;4.754;2024-01-25T01:22:00;45.53;;;11.30;;
8861;SDS011;4799;50.996;4.754;2024-01-25T01:24:25;44.97;;;10.70;;
8861;SDS011;4799;50.996;4.754;2024-01-25T01:26:51;43.70;;;10.70;;
8861;SDS011;4799;50.996;4.754;2024-01-25T01:29:17;44.57;;;10.67;;
8861;SDS011;4799;50.996;4.754;2024-01-25T01:31:43;45.93;;;10.90;;
8861;SDS011;4799;50.996;4.754;2024-01-25T01:34:09;53.10;;;11.63;;
8861;SDS011;4799;50.996;4.754;2024-01-25T01:36:35;47.73;;;10.60;;
8861;SDS011;4799;50.996;4.754;2024-01-25T01:39:01;47.27;;;10.80;;
8861;SDS011;4799;50.996;4.754;2024-01-25T01:41:26;51.03;;;11.10;;
8861;SDS011;4799;50.996;4.754;2024-01-25T01:43:52;49.03;;;11.67;;
8861;SDS011;4799;50.996;4.754;2024-01-25T01:46:34;49.10;;;11.67;;
8861;SDS011;4799;50.996;4.754;2024-01-25T01:49:08;45.30;;;9.53;;
8861;SDS011;4799;50.996;4.754;2024-01-25T01:51:37;47.90;;;10.37;;
8861;SDS011;4799;50.996;4.754;2024-01-25T01:54:05;53.20;;;11.30;;
8861;SDS011;4799;50.996;4.754;2024-01-25T01:56:32;45.97;;;11.40;;
8861;SDS011;4799;50.996;4.754;2024-01-25T01:58:59;49.80;;;10.73;;
8861;SDS011;4799;50.996;4.754;2024-01-25T02:01:26;47.00;;;10.90;;
8861;SDS011;4799;50.996;4.754;2024-01-25T02:03:52;47.87;;;11.13;;
8861;SDS011;4799;50.996;4.754;2024-01-25T02:06:18;46.87;;;11.23;;
8861;SDS011;4799;50.996;4.754;2024-01-25T02:08:45;47.97;;;11.13;;
8861;SDS011;4799;50.996;4.754;2024-01-25T02:11:12;46.97;;;10.47;;
8861;SDS011;4799;50.996;4.754;2024-01-25T02:13:38;50.33;;;11.43;;
8861;SDS011;4799;50.996;4.754;2024-01-25T02:16:04;49.03;;;11.70;;
8861;SDS011;4799;50.996;4.754;2024-01-25T02:18:32;54.00;;;11.27;;
8861;SDS011;4799;50.996;4.754;2024-01-25T02:20:58;51.83;;;11.30;;
8861;SDS011;4799;50.996;4.754;2024-01-25T02:23:24;51.33;;;10.63;;
8861;SDS011;4799;50.996;4.754;2024-01-25T02:25:49;49.43;;;9.87;;
8861;SDS011;4799;50.996;4.754;2024-01-25T02:28:15;45.60;;;10.73;;
8861;SDS011;4799;50.996;4.754;2024-01-25T02:30:41;58.83;;;12.03;;
8861;SDS011;4799;50.996;4.754;2024-01-25T02:33:06;50.97;;;12.37;;
8861;SDS011;4799;50.996;4.754;2024-01-25T02:35:32;50.00;;;11.00;;
8861;SDS011;4799;50.996;4.754;2024-01-25T02:37:58;49.70;;;11.00;;
8861;SDS011;4799;50.996;4.754;2024-01-25T02:40:24;50.97;;;11.17;;
8861;SDS011;4799;50.996;4.754;2024-01-25T02:42:50;54.83;;;11.70;;
8861;SDS011;4799;50.996;4.754;2024-01-25T02:45:16;57.47;;;10.90;;
8861;SDS011;4799;50.996;4.754;2024-01-25T02:47:41;50.37;;;11.53;;
8861;SDS011;4799;50.996;4.754;2024-01-25T02:50:07;47.90;;;10.57;;
8861;SDS011;4799;50.996;4.754;2024-01-25T02:52:33;48.00;;;10.27;;
8861;SDS011;4799;50.996;4.754;2024-01-25T02:54:59;53.13;;;11.97;;
8861;SDS011;4799;50.996;4.754;2024-01-25T02:57:25;51.10;;;11.83;;
8861;SDS011;4799;50.996;4.754;2024-01-25T02:59:51;54.77;;;11.30;;
8861;SDS011;4799;50.996;4.754;2024-01-25T03:02:16;50.60;;;11.47;;
8861;SDS011;4799;50.996;4.754;2024-01-25T03:04:44;54.90;;;11.97;;
8861;SDS011;4799;50.996;4.754;2024-01-25T03:07:13;52.73;;;11.17;;
8861;SDS011;4799;50.996;4.754;2024-01-25T03:09:39;54.70;;;10.37;;
8861;SDS011;4799;50.996;4.754;2024-01-25T03:12:05;53.13;;;11.60;;
8861;SDS011;4799;50.996;4.754;2024-01-25T03:14:31;46.53;;;10.67;;
8861;SDS011;4799;50.996;4.754;2024-01-25T03:16:56;46.50;;;10.10;;
8861;SDS011;4799;50.996;4.754;2024-01-25T03:19:26;55.57;;;11.50;;
8861;SDS011;4799;50.996;4.754;2024-01-25T03:21:52;54.97;;;11.27;;
8861;SDS011;4799;50.996;4.754;2024-01-25T03:24:19;40.07;;;9.70;;
8861;SDS011;4799;50.996;4.754;2024-01-25T03:26:45;42.07;;;10.00;;
8861;SDS011;4799;50.996;4.754;2024-01-25T03:29:11;51.63;;;10.40;;
8861;SDS011;4799;50.996;4.754;2024-01-25T03:31:37;45.23;;;9.97;;
8861;SDS011;4799;50.996;4.754;2024-01-25T03:34:03;44.30;;;10.57;;
8861;SDS011;4799;50.996;4.754;2024-01-25T03:36:30;46.67;;;11.17;;
8861;SDS011;4799;50.996;4.754;2024-01-25T03:38:56;40.90;;;10.20;;
8861;SDS011;4799;50.996;4.754;2024-01-25T03:41:22;37.37;;;9.40;;
8861;SDS011;4799;50.996;4.754;2024-01-25T03:43:49;58.43;;;12.37;;
8861;SDS011;4799;50.996;4.754;2024-01-25T03:46:15;46.57;;;10.13;;
8861;SDS011;4799;50.996;4.754;2024-01-25T03:48:41;55.20;;;10.80;;
8861;SDS011;4799;50.996;4.754;2024-01-25T03:51:07;48.77;;;10.33;;
8861;SDS011;4799;50.996;4.754;2024-01-25T03:53:33;58.77;;;11.73;;
8861;SDS011;4799;50.996;4.754;2024-01-25T03:55:58;41.63;;;9.47;;
8861;SDS011;4799;50.996;4.754;2024-01-25T03:58:24;49.70;;;10.03;;
8861;SDS011;4799;50.996;4.754;2024-01-25T04:00:50;44.60;;;10.23;;
8861;SDS011;4799;50.996;4.754;2024-01-25T04:03:16;49.60;;;10.67;;
8861;SDS011;4799;50.996;4.754;2024-01-25T04:05:41;38.43;;;9.53;;
8861;SDS011;4799;50.996;4.754;2024-01-25T04:08:07;33.53;;;9.43;;
8861;SDS011;4799;50.996;4.754;2024-01-25T04:10:33;32.87;;;8.93;;
8861;SDS011;4799;50.996;4.754;2024-01-25T04:12:59;43.13;;;10.37;;
8861;SDS011;4799;50.996;4.754;2024-01-25T04:15:32;42.33;;;10.30;;
8861;SDS011;4799;50.996;4.754;2024-01-25T04:17:58;38.93;;;10.07;;
8861;SDS011;4799;50.996;4.754;2024-01-25T04:20:23;47.57;;;11.30;;
8861;SDS011;4799;50.996;4.754;2024-01-25T04:22:49;58.33;;;11.33;;
8861;SDS011;4799;50.996;4.754;2024-01-25T04:25:15;40.37;;;10.27;;
8861;SDS011;4799;50.996;4.754;2024-01-25T04:27:41;40.30;;;9.07;;
8861;SDS011;4799;50.996;4.754;2024-01-25T04:30:07;32.00;;;8.33;;
8861;SDS011;4799;50.996;4.754;2024-01-25T04:32:33;37.57;;;9.20;;
8861;SDS011;4799;50.996;4.754;2024-01-25T04:34:59;44.77;;;9.97;;
8861;SDS011;4799;50.996;4.754;2024-01-25T04:37:25;48.37;;;11.10;;
8861;SDS011;4799;50.996;4.754;2024-01-25T04:39:51;50.37;;;12.40;;
8861;SDS011;4799;50.996;4.754;2024-01-25T04:42:17;43.70;;;10.70;;
8861;SDS011;4799;50.996;4.754;2024-01-25T04:44:43;42.53;;;9.87;;
8861;SDS011;4799;50.996;4.754;2024-01-25T04:47:09;35.87;;;9.10;;
8861;SDS011;4799;50.996;4.754;2024-01-25T04:49:35;41.20;;;10.17;;
8861;SDS011;4799;50.996;4.754;2024-01-25T04:52:01;43.77;;;9.90;;
8861;SDS011;4799;50.996;4.754;2024-01-25T04:54:27;45.50;;;10.33;;
8861;SDS011;4799;50.996;4.754;2024-01-25T04:56:53;43.13;;;10.23;;
8861;SDS011;4799;50.996;4.754;2024-01-25T04:59:19;38.83;;;10.23;;
8861;SDS011;4799;50.996;4.754;2024-01-25T05:01:45;37.30;;;9.00;;
8861;SDS011;4799;50.996;4.754;2024-01-25T05:04:11;34.33;;;8.63;;
8861;SDS011;4799;50.996;4.754;2024-01-25T05:06:36;27.80;;;8.13;;
8861;SDS011;4799;50.996;4.754;2024-01-25T05:09:02;28.17;;;8.23;;
8861;SDS011;4799;50.996;4.754;2024-01-25T05:11:28;45.13;;;10.30;;
8861;SDS011;4799;50.996;4.754;2024-01-25T05:13:53;45.80;;;11.07;;
8861;SDS011;4799;50.996;4.754;2024-01-25T05:16:19;36.47;;;9.27;;
8861;SDS011;4799;50.996;4.754;2024-01-25T05:18:45;34.53;;;9.20;;
8861;SDS011;4799;50.996;4.754;2024-01-25T05:21:11;37.27;;;8.87;;
8861;SDS011;4799;50.996;4.754;2024-01-25T05:23:36;32.03;;;9.17;;
8861;SDS011;4799;50.996;4.754;2024-01-25T05:26:02;42.00;;;9.23;;
8861;SDS011;4799;50.996;4.754;2024-01-25T05:28:28;38.67;;;10.40;;
8861;SDS011;4799;50.996;4.754;2024-01-25T05:30:53;41.57;;;9.90;;
8861;SDS011;4799;50.996;4.754;2024-01-25T05:33:19;48.17;;;10.67;;
8861;SDS011;4799;50.996;4.754;2024-01-25T05:35:45;39.50;;;10.13;;
8861;SDS011;4799;50.996;4.754;2024-01-25T05:38:10;37.87;;;9.80;;
8861;SDS011;4799;50.996;4.754;2024-01-25T05:40:36;36.53;;;9.50;;
8861;SDS011;4799;50.996;4.754;2024-01-25T05:43:02;46.13;;;11.20;;
8861;SDS011;4799;50.996;4.754;2024-01-25T05:45:28;53.03;;;11.20;;
8861;SDS011;4799;50.996;4.754;2024-01-25T05:47:53;50.00;;;10.63;;
8861;SDS011;4799;50.996;4.754;2024-01-25T05:50:19;52.33;;;12.10;;
8861;SDS011;4799;50.996;4.754;2024-01-25T05:52:45;42.80;;;11.23;;
8861;SDS011;4799;50.996;4.754;2024-01-25T05:55:11;49.80;;;11.13;;
8861;SDS011;4799;50.996;4.754;2024-01-25T05:57:39;41.33;;;10.63;;
8861;SDS011;4799;50.996;4.754;2024-01-25T06:00:05;38.27;;;9.77;;
8861;SDS011;4799;50.996;4.754;2024-01-25T06:02:31;28.50;;;8.63;;
8861;SDS011;4799;50.996;4.754;2024-01-25T06:04:56;39.03;;;10.23;;
8861;SDS011;4799;50.996;4.754;2024-01-25T06:07:24;44.20;;;9.93;;
8861;SDS011;4799;50.996;4.754;2024-01-25T06:09:50;42.00;;;11.10;;
8861;SDS011;4799;50.996;4.754;2024-01-25T06:12:16;45.20;;;11.00;;
8861;SDS011;4799;50.996;4.754;2024-01-25T06:14:42;42.77;;;10.50;;
8861;SDS011;4799;50.996;4.754;2024-01-25T06:17:07;47.90;;;11.37;;
8861;SDS011;4799;50.996;4.754;2024-01-25T06:19:33;49.23;;;12.77;;
8861;SDS011;4799;50.996;4.754;2024-01-25T06:21:59;47.83;;;11.57;;
8861;SDS011;4799;50.996;4.754;2024-01-25T06:24:25;50.27;;;11.63;;
8861;SDS011;4799;50.996;4.754;2024-01-25T06:26:52;47.73;;;11.90;;
8861;SDS011;4799;50.996;4.754;2024-01-25T06:29:18;40.20;;;10.50;;
8861;SDS011;4799;50.996;4.754;2024-01-25T06:31:44;56.27;;;13.27;;
8861;SDS011;4799;50.996;4.754;2024-01-25T06:34:10;54.77;;;13.07;;
8861;SDS011;4799;50.996;4.754;2024-01-25T06:36:36;56.70;;;13.13;;
8861;SDS011;4799;50.996;4.754;2024-01-25T06:39:02;52.80;;;12.80;;
8861;SDS011;4799;50.996;4.754;2024-01-25T06:41:29;57.90;;;12.67;;
8861;SDS011;4799;50.996;4.754;2024-01-25T06:43:55;54.67;;;12.50;;
8861;SDS011;4799;50.996;4.754;2024-01-25T06:46:21;48.33;;;12.27;;
8861;SDS011;4799;50.996;4.754;2024-01-25T06:48:47;55.00;;;13.27;;
8861;SDS011;4799;50.996;4.754;2024-01-25T06:51:13;59.63;;;12.90;;
8861;SDS011;4799;50.996;4.754;2024-01-25T06:53:39;57.47;;;12.53;;
8861;SDS011;4799;50.996;4.754;2024-01-25T06:56:05;52.43;;;12.93;;
8861;SDS011;4799;50.996;4.754;2024-01-25T06:58:31;54.57;;;12.23;;
8861;SDS011;4799;50.996;4.754;2024-01-25T07:00:57;56.03;;;13.03;;
8861;SDS011;4799;50.996;4.754;2024-01-25T07:03:24;57.90;;;12.47;;
8861;SDS011;4799;50.996;4.754;2024-01-25T07:05:50;59.10;;;12.97;;
8861;SDS011;4799;50.996;4.754;2024-01-25T07:08:16;67.00;;;13.33;;
8861;SDS011;4799;50.996;4.754;2024-01-25T07:10:41;56.17;;;12.73;;
8861;SDS011;4799;50.996;4.754;2024-01-25T07:13:08;64.77;;;14.73;;
8861;SDS011;4799;50.996;4.754;2024-01-25T07:15:34;58.33;;;12.87;;
8861;SDS011;4799;50.996;4.754;2024-01-25T07:17:59;46.33;;;11.50;;
8861;SDS011;4799;50.996;4.754;2024-01-25T07:20:25;51.67;;;12.87;;
8861;SDS011;4799;50.996;4.754;2024-01-25T07:22:51;54.60;;;12.57;;
8861;SDS011;4799;50.996;4.754;2024-01-25T07:25:16;47.03;;;11.00;;
8861;SDS011;4799;50.996;4.754;2024-01-25T07:27:45;47.03;;;11.70;;
8861;SDS011;4799;50.996;4.754;2024-01-25T07:30:12;58.97;;;14.27;;
8861;SDS011;4799;50.996;4.754;2024-01-25T07:32:38;54.57;;;13.10;;
8861;SDS011;4799;50.996;4.754;2024-01-25T07:35:10;58.93;;;14.00;;
8861;SDS011;4799;50.996;4.754;2024-01-25T07:37:37;55.13;;;13.37;;
8861;SDS011;4799;50.996;4.754;2024-01-25T07:40:03;59.30;;;14.00;;
8861;SDS011;4799;50.996;4.754;2024-01-25T07:42:29;60.73;;;15.60;;
8861;SDS011;4799;50.996;4.754;2024-01-25T07:44:55;63.27;;;15.83;;
8861;SDS011;4799;50.996;4.754;2024-01-25T07:47:21;57.40;;;13.80;;
8861;SDS011;4799;50.996;4.754;2024-01-25T07:49:46;53.30;;;14.03;;
8861;SDS011;4799;50.996;4.754;2024-01-25T07:52:13;55.63;;;14.93;;
8861;SDS011;4799;50.996;4.754;2024-01-25T07:54:39;63.30;;;15.23;;
8861;SDS011;4799;50.996;4.754;2024-01-25T07:57:04;58.60;;;14.73;;
8861;SDS011;4799;50.996;4.754;2024-01-25T07:59:30;64.83;;;15.63;;
8861;SDS011;4799;50.996;4.754;2024-01-25T08:01:56;60.93;;;14.90;;
8861;SDS011;4799;50.996;4.754;2024-01-25T08:04:22;60.80;;;14.90;;
8861;SDS011;4799;50.996;4.754;2024-01-25T08:06:47;51.57;;;14.63;;
8861;SDS011;4799;50.996;4.754;2024-01-25T08:09:13;68.13;;;15.23;;
8861;SDS011;4799;50.996;4.754;2024-01-25T08:11:39;54.33;;;14.97;;
8861;SDS011;4799;50.996;4.754;2024-01-25T08:14:05;60.57;;;15.60;;
8861;SDS011;4799;50.996;4.754;2024-01-25T08:16:31;65.93;;;15.57;;
8861;SDS011;4799;50.996;4.754;2024-01-25T08:18:56;61.20;;;16.90;;
8861;SDS011;4799;50.996;4.754;2024-01-25T08:21:23;51.57;;;15.90;;
8861;SDS011;4799;50.996;4.754;2024-01-25T08:23:49;58.50;;;17.43;;
8861;SDS011;4799;50.996;4.754;2024-01-25T08:26:15;51.50;;;15.57;;
8861;SDS011;4799;50.996;4.754;2024-01-25T08:28:41;58.73;;;16.23;;
8861;SDS011;4799;50.996;4.754;2024-01-25T08:31:10;72.40;;;19.43;;
8861;SDS011;4799;50.996;4.754;2024-01-25T08:33:36;69.07;;;19.80;;
8861;SDS011;4799;50.996;4.754;2024-01-25T08:36:06;61.63;;;20.10;;
8861;SDS011;4799;50.996;4.754;2024-01-25T08:38:32;66.87;;;22.33;;
8861;SDS011;4799;50.996;4.754;2024-01-25T08:40:58;61.70;;;22.50;;
8861;SDS011;4799;50.996;4.754;2024-01-25T08:43:24;64.80;;;23.97;;
8861;SDS011;4799;50.996;4.754;2024-01-25T08:45:49;65.83;;;23.40;;
8861;SDS011;4799;50.996;4.754;2024-01-25T08:48:15;77.13;;;26.10;;
8861;SDS011;4799;50.996;4.754;2024-01-25T08:50:41;69.17;;;26.20;;
8861;SDS011;4799;50.996;4.754;2024-01-25T08:53:07;57.43;;;23.50;;
8861;SDS011;4799;50.996;4.754;2024-01-25T08:55:33;55.20;;;24.20;;
8861;SDS011;4799;50.996;4.754;2024-01-25T08:57:58;48.60;;;23.27;;
8861;SDS011;4799;50.996;4.754;2024-01-25T09:00:24;61.70;;;24.90;;
8861;SDS011;4799;50.996;4.754;2024-01-25T09:02:50;53.83;;;24.20;;
8861;SDS011;4799;50.996;4.754;2024-01-25T09:05:16;58.60;;;26.07;;
8861;SDS011;4799;50.996;4.754;2024-01-25T09:07:42;57.93;;;25.47;;
8861;SDS011;4799;50.996;4.754;2024-01-25T09:10:08;67.10;;;27.47;;
8861;SDS011;4799;50.996;4.754;2024-01-25T09:12:34;57.10;;;26.27;;
8861;SDS011;4799;50.996;4.754;2024-01-25T09:15:01;53.57;;;24.73;;
8861;SDS011;4799;50.996;4.754;2024-01-25T09:17:27;47.57;;;22.53;;
8861;SDS011;4799;50.996;4.754;2024-01-25T09:19:52;44.63;;;22.63;;
8861;SDS011;4799;50.996;4.754;2024-01-25T09:22:18;47.03;;;23.10;;
8861;SDS011;4799;50.996;4.754;2024-01-25T09:24:47;51.47;;;24.13;;
8861;SDS011;4799;50.996;4.754;2024-01-25T09:27:14;44.00;;;22.57;;
8861;SDS011;4799;50.996;4.754;2024-01-25T09:29:40;52.37;;;23.93;;
8861;SDS011;4799;50.996;4.754;2024-01-25T09:32:07;57.10;;;26.43;;
8861;SDS011;4799;50.996;4.754;2024-01-25T09:34:33;52.03;;;24.13;;
8861;SDS011;4799;50.996;4.754;2024-01-25T09:37:00;51.33;;;24.30;;
8861;SDS011;4799;50.996;4.754;2024-01-25T09:39:25;58.30;;;26.30;;
8861;SDS011;4799;50.996;4.754;2024-01-25T09:41:56;55.00;;;25.60;;
8861;SDS011;4799;50.996;4.754;2024-01-25T09:44:22;50.33;;;25.20;;
8861;SDS011;4799;50.996;4.754;2024-01-25T09:46:47;50.17;;;24.23;;
8861;SDS011;4799;50.996;4.754;2024-01-25T09:49:13;48.23;;;24.37;;
8861;SDS011;4799;50.996;4.754;2024-01-25T09:51:40;53.30;;;25.17;;
8861;SDS011;4799;50.996;4.754;2024-01-25T09:54:07;50.87;;;25.80;;
8861;SDS011;4799;50.996;4.754;2024-01-25T09:56:33;53.27;;;25.03;;
8861;SDS011;4799;50.996;4.754;2024-01-25T09:58:59;55.83;;;26.07;;
8861;SDS011;4799;50.996;4.754;2024-01-25T10:01:26;53.67;;;25.50;;
8861;SDS011;4799;50.996;4.754;2024-01-25T10:03:52;52.80;;;25.93;;
8861;SDS011;4799;50.996;4.754;2024-01-25T10:06:18;40.67;;;23.40;;
8861;SDS011;4799;50.996;4.754;2024-01-25T10:08:44;41.13;;;23.00;;
8861;SDS011;4799;50.996;4.754;2024-01-25T10:11:10;40.77;;;24.03;;
8861;SDS011;4799;50.996;4.754;2024-01-25T10:13:40;41.97;;;24.20;;
8861;SDS011;4799;50.996;4.754;2024-01-25T10:16:07;38.43;;;23.20;;
8861;SDS011;4799;50.996;4.754;2024-01-25T10:18:36;36.80;;;21.97;;
8861;SDS011;4799;50.996;4.754;2024-01-25T10:21:03;38.07;;;21.43;;
8861;SDS011;4799;50.996;4.754;2024-01-25T10:23:29;31.40;;;19.67;;
8861;SDS011;4799;50.996;4.754;2024-01-25T10:25:55;29.10;;;18.33;;
8861;SDS011;4799;50.996;4.754;2024-01-25T10:28:23;33.77;;;18.87;;
8861;SDS011;4799;50.996;4.754;2024-01-25T10:30:50;29.90;;;18.13;;
8861;SDS011;4799;50.996;4.754;2024-01-25T10:33:16;35.20;;;20.43;;
8861;SDS011;4799;50.996;4.754;2024-01-25T10:35:42;37.37;;;19.97;;
8861;SDS011;4799;50.996;4.754;2024-01-25T10:38:15;33.03;;;19.90;;
8861;SDS011;4799;50.996;4.754;2024-01-25T10:40:43;34.60;;;19.63;;
8861;SDS011;4799;50.996;4.754;2024-01-25T10:43:12;33.70;;;20.13;;
8861;SDS011;4799;50.996;4.754;2024-01-25T10:45:38;29.10;;;17.90;;
8861;SDS011;4799;50.996;4.754;2024-01-25T10:48:04;30.30;;;18.77;;
8861;SDS011;4799;50.996;4.754;2024-01-25T10:50:32;29.43;;;18.33;;
8861;SDS011;4799;50.996;4.754;2024-01-25T10:52:58;27.50;;;17.97;;
8861;SDS011;4799;50.996;4.754;2024-01-25T10:55:24;31.13;;;18.87;;
8861;SDS011;4799;50.996;4.754;2024-01-25T10:57:52;33.37;;;18.83;;
8861;SDS011;4799;50.996;4.754;2024-01-25T11:00:18;29.20;;;17.33;;
8861;SDS011;4799;50.996;4.754;2024-01-25T11:02:44;29.80;;;17.27;;
8861;SDS011;4799;50.996;4.754;2024-01-25T11:05:15;24.00;;;16.43;;
8861;SDS011;4799;50.996;4.754;2024-01-25T11:07:46;28.40;;;17.77;;
8861;SDS011;4799;50.996;4.754;2024-01-25T11:15:39;24.83;;;16.23;;
8861;SDS011;4799;50.996;4.754;2024-01-25T11:18:07;33.90;;;20.20;;
8861;SDS011;4799;50.996;4.754;2024-01-25T11:20:33;32.50;;;19.70;;
8861;SDS011;4799;50.996;4.754;2024-01-25T11:23:06;29.03;;;18.40;;
8861;SDS011;4799;50.996;4.754;2024-01-25T11:25:35;28.17;;;17.73;;
8861;SDS011;4799;50.996;4.754;2024-01-25T11:28:02;28.40;;;17.87;;
8861;SDS011;4799;50.996;4.754;2024-01-25T11:30:31;31.00;;;17.67;;
8861;SDS011;4799;50.996;4.754;2024-01-25T11:32:58;30.80;;;18.03;;
8861;SDS011;4799;50.996;4.754;2024-01-25T11:35:24;28.43;;;18.33;;
8861;SDS011;4799;50.996;4.754;2024-01-25T11:37:50;29.70;;;18.77;;
8861;SDS011;4799;50.996;4.754;2024-01-25T11:40:17;27.53;;;18.17;;
8861;SDS011;4799;50.996;4.754;2024-01-25T11:42:46;25.83;;;17.53;;
8861;SDS011;4799;50.996;4.754;2024-01-25T11:45:14;34.30;;;19.13;;
8861;SDS011;4799;50.996;4.754;2024-01-25T11:47:40;32.20;;;18.70;;
8861;SDS011;4799;50.996;4.754;2024-01-25T11:50:08;35.97;;;19.43;;
8861;SDS011;4799;50.996;4.754;2024-01-25T11:52:36;34.30;;;19.47;;
8861;SDS011;4799;50.996;4.754;2024-01-25T11:55:05;31.70;;;18.43;;
8861;SDS011;4799;50.996;4.754;2024-01-25T11:57:34;35.53;;;18.93;;
8861;SDS011;4799;50.996;4.754;2024-01-25T12:00:06;32.83;;;18.47;;
8861;SDS011;4799;50.996;4.754;2024-01-25T12:02:34;33.17;;;19.00;;
8861;SDS011;4799;50.996;4.754;2024-01-25T12:05:02;33.97;;;19.23;;
8861;SDS011;4799;50.996;4.754;2024-01-25T12:07:31;32.87;;;19.73;;
8861;SDS011;4799;50.996;4.754;2024-01-25T12:10:08;33.30;;;18.70;;
8861;SDS011;4799;50.996;4.754;2024-01-25T12:12:40;30.90;;;18.07;;
8861;SDS011;4799;50.996;4.754;2024-01-25T12:15:07;30.07;;;17.77;;
8861;SDS011;4799;50.996;4.754;2024-01-25T12:17:33;31.57;;;18.30;;
8861;SDS011;4799;50.996;4.754;2024-01-25T12:20:04;36.10;;;18.10;;
8861;SDS011;4799;50.996;4.754;2024-01-25T12:22:36;31.37;;;17.80;;
8861;SDS011;4799;50.996;4.754;2024-01-25T12:25:02;31.03;;;18.53;;
8861;SDS011;4799;50.996;4.754;2024-01-25T12:27:32;33.10;;;18.13;;
8861;SDS011;4799;50.996;4.754;2024-01-25T12:29:58;35.53;;;18.57;;
8861;SDS011;4799;50.996;4.754;2024-01-25T12:32:24;31.80;;;18.43;;
8861;SDS011;4799;50.996;4.754;2024-01-25T12:34:56;28.93;;;16.57;;
8861;SDS011;4799;50.996;4.754;2024-01-25T12:37:22;29.43;;;16.90;;
8861;SDS011;4799;50.996;4.754;2024-01-25T12:39:50;33.03;;;17.57;;
8861;SDS011;4799;50.996;4.754;2024-01-25T12:42:16;25.77;;;15.90;;
8861;SDS011;4799;50.996;4.754;2024-01-25T12:44:43;27.13;;;15.60;;
8861;SDS011;4799;50.996;4.754;2024-01-25T12:47:09;36.10;;;17.13;;
8861;SDS011;4799;50.996;4.754;2024-01-25T12:49:35;25.93;;;14.67;;
8861;SDS011;4799;50.996;4.754;2024-01-25T12:52:01;33.50;;;16.13;;
8861;SDS011;4799;50.996;4.754;2024-01-25T12:54:26;30.13;;;15.30;;
8861;SDS011;4799;50.996;4.754;2024-01-25T12:56:53;30.87;;;14.83;;
8861;SDS011;4799;50.996;4.754;2024-01-25T12:59:19;29.87;;;15.23;;
8861;SDS011;4799;50.996;4.754;2024-01-25T13:01:45;29.87;;;15.17;;
8861;SDS011;4799;50.996;4.754;2024-01-25T13:04:11;34.17;;;16.40;;
8861;SDS011;4799;50.996;4.754;2024-01-25T13:06:37;32.33;;;15.27;;
8861;SDS011;4799;50.996;4.754;2024-01-25T13:09:03;30.90;;;15.47;;
8861;SDS011;4799;50.996;4.754;2024-01-25T13:11:29;28.47;;;15.03;;
8861;SDS011;4799;50.996;4.754;2024-01-25T13:13:55;33.13;;;16.13;;
8861;SDS011;4799;50.996;4.754;2024-01-25T13:16:20;30.63;;;15.67;;
8861;SDS011;4799;50.996;4.754;2024-01-25T13:18:46;34.00;;;15.27;;
8861;SDS011;4799;50.996;4.754;2024-01-25T13:21:12;32.30;;;16.10;;
8861;SDS011;4799;50.996;4.754;2024-01-25T13:23:38;32.97;;;15.43;;
8861;SDS011;4799;50.996;4.754;2024-01-25T13:26:04;30.97;;;16.73;;
8861;SDS011;4799;50.996;4.754;2024-01-25T13:28:29;33.07;;;16.67;;
8861;SDS011;4799;50.996;4.754;2024-01-25T13:30:56;32.73;;;15.93;;
8861;SDS011;4799;50.996;4.754;2024-01-25T13:33:22;28.97;;;15.67;;
8861;SDS011;4799;50.996;4.754;2024-01-25T13:35:48;33.57;;;16.87;;
8861;SDS011;4799;50.996;4.754;2024-01-25T13:38:14;37.57;;;17.80;;
8861;SDS011;4799;50.996;4.754;2024-01-25T13:40:41;37.63;;;18.23;;
8861;SDS011;4799;50.996;4.754;2024-01-25T13:43:07;31.93;;;17.17;;
8861;SDS011;4799;50.996;4.754;2024-01-25T13:45:36;38.00;;;18.00;;
8861;SDS011;4799;50.996;4.754;2024-01-25T13:48:01;39.43;;;19.03;;
8861;SDS011;4799;50.996;4.754;2024-01-25T13:50:27;35.60;;;18.63;;
8861;SDS011;4799;50.996;4.754;2024-01-25T13:52:53;31.50;;;16.67;;
8861;SDS011;4799;50.996;4.754;2024-01-25T13:55:19;33.73;;;17.97;;
8861;SDS011;4799;50.996;4.754;2024-01-25T13:57:44;31.20;;;16.63;;
8861;SDS011;4799;50.996;4.754;2024-01-25T14:00:10;29.00;;;16.13;;
8861;SDS011;4799;50.996;4.754;2024-01-25T14:02:37;31.00;;;16.70;;
8861;SDS011;4799;50.996;4.754;2024-01-25T14:05:04;28.33;;;16.27;;
8861;SDS011;4799;50.996;4.754;2024-01-25T14:07:31;31.83;;;16.43;;
8861;SDS011;4799;50.996;4.754;2024-01-25T14:09:57;28.97;;;15.70;;
8861;SDS011;4799;50.996;4.754;2024-01-25T14:12:23;33.07;;;16.47;;
8861;SDS011;4799;50.996;4.754;2024-01-25T14:14:48;28.07;;;15.77;;
8861;SDS011;4799;50.996;4.754;2024-01-25T14:17:14;29.00;;;16.37;;
8861;SDS011;4799;50.996;4.754;2024-01-25T14:19:40;25.13;;;14.73;;
8861;SDS011;4799;50.996;4.754;2024-01-25T14:22:06;23.43;;;14.43;;
8861;SDS011;4799;50.996;4.754;2024-01-25T14:24:32;26.13;;;14.83;;
8861;SDS011;4799;50.996;4.754;2024-01-25T14:26:57;24.40;;;14.80;;
8861;SDS011;4799;50.996;4.754;2024-01-25T14:29:23;23.20;;;14.10;;
8861;SDS011;4799;50.996;4.754;2024-01-25T14:31:49;21.23;;;13.83;;
8861;SDS011;4799;50.996;4.754;2024-01-25T14:34:15;16.93;;;12.43;;
8861;SDS011;4799;50.996;4.754;2024-01-25T14:36:40;20.87;;;11.93;;
8861;SDS011;4799;50.996;4.754;2024-01-25T14:39:06;16.90;;;11.33;;
8861;SDS011;4799;50.996;4.754;2024-01-25T14:41:33;17.50;;;11.93;;
8861;SDS011;4799;50.996;4.754;2024-01-25T14:43:59;19.50;;;11.30;;
8861;SDS011;4799;50.996;4.754;2024-01-25T14:46:26;14.73;;;10.17;;
8861;SDS011;4799;50.996;4.754;2024-01-25T14:48:51;13.27;;;10.23;;
8861;SDS011;4799;50.996;4.754;2024-01-25T14:51:17;14.83;;;10.53;;